createdAt,value
2022-08-30T00:02:22.373Z,99004.09
2022-08-30T00:04:54.172Z,99016.94
2022-08-30T00:07:22.803Z,99012.16
2022-08-30T00:09:50.261Z,99002.50
2022-08-30T00:12:17.868Z,99002.41
2022-08-30T00:14:45.461Z,99002.16
2022-08-30T00:17:13.673Z,99008.78
2022-08-30T00:19:41.116Z,99005.00
2022-08-30T00:22:10.107Z,99012.34
2022-08-30T00:24:38.281Z,99013.34
2022-08-30T00:27:05.686Z,99006.22
2022-08-30T00:29:32.921Z,99006.88
2022-08-30T00:32:02.414Z,99012.34
2022-08-30T00:34:29.632Z,99012.13
2022-08-30T00:36:57.427Z,99016.72
2022-08-30T00:39:25.144Z,99013.88
2022-08-30T00:41:52.461Z,99016.03
2022-08-30T00:44:19.830Z,99012.47
2022-08-30T00:46:47.146Z,99019.16
2022-08-30T00:49:15.105Z,99015.34
2022-08-30T00:51:43.259Z,99014.94
2022-08-30T00:54:12.364Z,99025.09
2022-08-30T00:56:39.973Z,99021.41
2022-08-30T00:59:09.111Z,99015.72
2022-08-30T01:01:37.755Z,99012.56
2022-08-30T01:04:08.913Z,99010.03
2022-08-30T01:06:39.835Z,99015.84
2022-08-30T01:09:08.705Z,99012.06
2022-08-30T01:11:38.144Z,99022.03
2022-08-30T01:14:08.863Z,99018.16
2022-08-30T01:16:40.238Z,99018.56
2022-08-30T01:19:28.803Z,99025.34
2022-08-30T01:22:08.976Z,99027.16
2022-08-30T01:24:36.839Z,99023.22
2022-08-30T01:27:05.002Z,99024.56
2022-08-30T01:29:32.684Z,99023.91
2022-08-30T01:31:59.858Z,99013.47
2022-08-30T01:34:27.134Z,99018.09
2022-08-30T01:36:54.570Z,99013.91
2022-08-30T01:39:22.170Z,99012.69
2022-08-30T01:41:49.487Z,99021.97
2022-08-30T01:44:17.098Z,99013.59
2022-08-30T01:46:47.805Z,99013.88
2022-08-30T01:49:23.074Z,99031.97
2022-08-30T01:52:00.787Z,99030.06
2022-08-30T01:54:36.907Z,99024.25
2022-08-30T01:57:09.850Z,99037.91
2022-08-30T01:59:39.548Z,99027.53
2022-08-30T02:02:08.226Z,99026.44
2022-08-30T02:04:36.863Z,99029.53
2022-08-30T02:07:09.084Z,99033.66
2022-08-30T02:09:37.662Z,99033.25
2022-08-30T02:12:07.826Z,99035.00
2022-08-30T02:14:37.141Z,99034.88
2022-08-30T02:17:09.164Z,99036.22
2022-08-30T02:19:36.714Z,99029.81
2022-08-30T02:22:05.546Z,99035.44
2022-08-30T02:24:33.607Z,99024.53
2022-08-30T02:27:00.925Z,99030.44
2022-08-30T02:29:28.292Z,99022.25
2022-08-30T02:31:55.614Z,99016.06
2022-08-30T02:34:23.159Z,99011.69
2022-08-30T02:36:50.668Z,99015.66
2022-08-30T02:39:18.206Z,99020.63
2022-08-30T02:41:46.800Z,99019.28
2022-08-30T02:44:15.709Z,99015.91
2022-08-30T02:46:43.215Z,99011.91
2022-08-30T02:49:32.763Z,99007.91
2022-08-30T02:51:58.134Z,99014.38
2022-08-30T02:54:25.994Z,99016.75
2022-08-30T02:56:53.936Z,99008.66
2022-08-30T02:59:21.198Z,99017.78
2022-08-30T03:01:48.956Z,99013.38
2022-08-30T03:04:16.498Z,99021.72
2022-08-30T03:06:43.877Z,99015.53
2022-08-30T03:09:11.239Z,99011.81
2022-08-30T03:11:38.943Z,99008.44
2022-08-30T03:14:06.360Z,99007.44
2022-08-30T03:16:33.951Z,99005.28
2022-08-30T03:19:01.340Z,99005.56
2022-08-30T03:21:28.664Z,99004.19
2022-08-30T03:23:56.541Z,98997.41
2022-08-30T03:26:23.767Z,98998.53
2022-08-30T03:28:50.984Z,98995.13
2022-08-30T03:31:18.200Z,98990.38
2022-08-30T03:33:45.627Z,98984.56
2022-08-30T03:36:12.885Z,98998.16
2022-08-30T03:38:40.470Z,98996.22
2022-08-30T03:41:08.089Z,99005.69
2022-08-30T03:43:36.472Z,99000.88
2022-08-30T03:46:05.118Z,99007.09
2022-08-30T03:48:32.492Z,98996.72
2022-08-30T03:50:59.795Z,98993.06
2022-08-30T03:53:27.406Z,98998.53
2022-08-30T03:55:55.218Z,98998.41
2022-08-30T03:58:25.156Z,98999.50
2022-08-30T04:00:52.510Z,98996.38
2022-08-30T04:03:25.712Z,99002.91
2022-08-30T04:05:56.787Z,99004.56
2022-08-30T04:08:25.592Z,99003.44
2022-08-30T04:10:55.586Z,98997.81
2022-08-30T04:13:24.661Z,98999.41
2022-08-30T04:15:51.941Z,98996.19
2022-08-30T04:18:19.296Z,98996.56
2022-08-30T04:20:47.463Z,99003.13
2022-08-30T04:23:15.047Z,98998.91
2022-08-30T04:25:42.832Z,99003.16
2022-08-30T04:28:11.185Z,99005.97
2022-08-30T04:30:44.855Z,99012.50
2022-08-30T04:33:15.226Z,99011.13
2022-08-30T04:35:48.306Z,99010.84
2022-08-30T04:38:17.749Z,99017.25
2022-08-30T04:40:50.120Z,99013.38
2022-08-30T04:43:17.683Z,99011.69
2022-08-30T04:45:45.194Z,99010.25
2022-08-30T04:48:12.438Z,99019.75
2022-08-30T04:50:39.964Z,99020.81
2022-08-30T04:53:14.979Z,99024.13
2022-08-30T04:55:43.919Z,99023.28
2022-08-30T04:58:12.183Z,99038.44
2022-08-30T05:00:42.103Z,99032.22
2022-08-30T05:03:09.537Z,99029.91
2022-08-30T05:05:39.956Z,99043.13
2022-08-30T05:08:14.534Z,99051.50
2022-08-30T05:10:47.099Z,99044.78
2022-08-30T05:13:18.501Z,99041.72
2022-08-30T05:15:47.193Z,99043.72
2022-08-30T05:18:15.822Z,99053.56
2022-08-30T05:20:44.162Z,99060.53
2022-08-30T05:23:12.014Z,99058.63
2022-08-30T05:25:42.347Z,99069.19
2022-08-30T05:28:09.768Z,99068.59
2022-08-30T05:30:38.377Z,99075.34
2022-08-30T05:33:05.843Z,99075.38
2022-08-30T05:35:33.095Z,99078.91
2022-08-30T05:38:00.847Z,99084.63
2022-08-30T05:40:29.227Z,99079.19
2022-08-30T05:42:56.582Z,99071.84
2022-08-30T05:45:24.053Z,99077.69
2022-08-30T05:47:51.308Z,99086.09
2022-08-30T05:50:18.774Z,99075.56
2022-08-30T05:52:48.497Z,99082.66
2022-08-30T05:55:16.081Z,99068.56
2022-08-30T05:57:43.475Z,99066.44
2022-08-30T06:00:18.404Z,99067.44
2022-08-30T06:02:46.112Z,99064.03
2022-08-30T06:05:14.635Z,99063.97
2022-08-30T06:07:43.539Z,99069.13
2022-08-30T06:10:12.495Z,99069.06
2022-08-30T06:12:40.473Z,99070.41
2022-08-30T06:15:08.909Z,99063.03
2022-08-30T06:17:36.491Z,99061.00
2022-08-30T06:20:04.544Z,99072.72
2022-08-30T06:22:32.122Z,99086.56
2022-08-30T06:24:59.403Z,99083.13
2022-08-30T06:27:26.735Z,99088.50
2022-08-30T06:29:54.084Z,99092.25
2022-08-30T06:32:21.486Z,99084.03
2022-08-30T06:34:49.489Z,99083.25
2022-08-30T06:37:29.146Z,99085.22
2022-08-30T06:39:59.385Z,99077.22
2022-08-30T06:42:32.260Z,99082.91
2022-08-30T06:45:10.655Z,99077.13
2022-08-30T06:47:40.559Z,99078.03
2022-08-30T06:50:11.840Z,99077.75
2022-08-30T06:52:47.737Z,99071.25
2022-08-30T06:55:18.563Z,99075.84
2022-08-30T06:57:47.184Z,99072.06
2022-08-30T07:00:17.911Z,99075.72
2022-08-30T07:02:45.403Z,99083.06
2022-08-30T07:05:18.032Z,99076.31
2022-08-30T07:07:46.117Z,99078.56
2022-08-30T07:10:15.325Z,99072.50
2022-08-30T07:12:48.781Z,99072.84
2022-08-30T07:15:16.586Z,99072.66
2022-08-30T07:18:02.474Z,99072.25
2022-08-30T07:20:40.009Z,99085.69
2022-08-30T07:23:10.318Z,99082.69
2022-08-30T07:25:41.617Z,99077.31
2022-08-30T07:28:11.874Z,99086.66
2022-08-30T07:30:41.848Z,99082.59
2022-08-30T07:33:09.885Z,99077.59
2022-08-30T07:35:37.324Z,99077.31
2022-08-30T07:38:10.253Z,99071.94
2022-08-30T07:40:38.754Z,99080.78
2022-08-30T07:43:06.427Z,99073.22
2022-08-30T07:45:34.119Z,99077.09
2022-08-30T07:48:03.334Z,99074.28
2022-08-30T07:50:31.051Z,99085.34
2022-08-30T07:52:58.803Z,99083.72
2022-08-30T07:55:26.464Z,99083.97
2022-08-30T07:57:53.717Z,99087.19
2022-08-30T08:00:21.234Z,99075.06
2022-08-30T08:02:48.575Z,99072.53
2022-08-30T08:05:18.133Z,99076.19
2022-08-30T08:07:46.954Z,99066.56
2022-08-30T08:10:21.723Z,99066.94
2022-08-30T08:12:49.655Z,99068.41
2022-08-30T08:15:21.866Z,99067.38
2022-08-30T08:17:49.337Z,99068.59
2022-08-30T08:20:16.799Z,99074.56
2022-08-30T08:22:44.043Z,99067.88
2022-08-30T08:25:11.313Z,99068.72
2022-08-30T08:27:38.865Z,99067.38
2022-08-30T08:30:07.454Z,99070.78
2022-08-30T08:32:35.121Z,99074.41
2022-08-30T08:35:02.624Z,99066.25
2022-08-30T08:37:30.091Z,99065.38
2022-08-30T08:39:57.639Z,99074.16
2022-08-30T08:43:01.393Z,99062.31
2022-08-30T08:46:17.153Z,99061.00
2022-08-30T08:49:00.898Z,99056.22
2022-08-30T08:51:57.425Z,99048.56
2022-08-30T08:54:51.597Z,99043.91
2022-08-30T08:57:22.715Z,99047.41
2022-08-30T08:59:54.392Z,99048.53
2022-08-30T09:02:41.264Z,99045.16
2022-08-30T09:05:15.587Z,99041.19
2022-08-30T09:07:52.509Z,99037.72
2022-08-30T09:10:40.363Z,99042.81
2022-08-30T09:13:12.982Z,99034.47
2022-08-30T09:15:41.099Z,99030.59
2022-08-30T09:18:19.495Z,99037.72
2022-08-30T09:20:51.627Z,99033.84
2022-08-30T09:23:19.038Z,99032.81
2022-08-30T09:25:59.409Z,99023.88
2022-08-30T09:29:05.212Z,99015.16
2022-08-30T09:31:52.940Z,99009.69
2022-08-30T09:34:33.617Z,99004.38
2022-08-30T09:37:01.081Z,98987.22
2022-08-30T09:39:39.340Z,98991.69
2022-08-30T09:42:26.037Z,98967.13
2022-08-30T09:45:10.394Z,98969.25
2022-08-30T09:47:44.403Z,98969.88
2022-08-30T09:50:17.002Z,98968.72
2022-08-30T09:53:23.434Z,98978.78
2022-08-30T09:56:12.234Z,98968.06
2022-08-30T09:59:34.305Z,98976.88
2022-08-30T10:02:25.656Z,98968.72
2022-08-30T10:05:33.664Z,98968.84
2022-08-30T10:08:32.989Z,98957.63
2022-08-30T10:11:22.114Z,98963.88
2022-08-30T10:14:05.545Z,98954.59
2022-08-30T10:17:04.710Z,98950.59
2022-08-30T10:20:30.473Z,98937.78
2022-08-30T10:23:11.475Z,98936.97
2022-08-30T10:26:54.491Z,98936.63
2022-08-30T10:29:40.637Z,98937.06
2022-08-30T10:33:25.524Z,98936.06
2022-08-30T10:37:07.923Z,98926.16
2022-08-30T10:41:09.128Z,98920.81
2022-08-30T10:44:52.158Z,98925.09
2022-08-30T10:48:35.423Z,98929.53
2022-08-30T10:52:17.916Z,98912.78
2022-08-30T10:56:06.291Z,98932.44
2022-08-30T10:59:48.915Z,98919.16
2022-08-30T11:03:33.055Z,98916.66
2022-08-30T11:07:15.787Z,98903.44
2022-08-30T11:10:58.832Z,98917.19
2022-08-30T11:14:41.449Z,98904.09
2022-08-30T11:18:25.891Z,98904.19
2022-08-30T11:22:08.665Z,98907.91
2022-08-30T11:25:56.876Z,98906.19
2022-08-30T11:29:40.686Z,98903.34
2022-08-30T11:33:23.845Z,98900.19
2022-08-30T11:35:53.679Z,98903.47
2022-08-30T11:38:26.903Z,98903.66
2022-08-30T11:42:09.414Z,98899.69
2022-08-30T11:44:36.675Z,98882.91
2022-08-30T11:48:17.216Z,98900.19
2022-08-30T11:51:20.287Z,98906.38
2022-08-30T11:55:02.542Z,98902.72
2022-08-30T11:58:44.914Z,98899.97
2022-08-30T12:01:46.898Z,98891.56
2022-08-30T12:04:37.541Z,98878.09
2022-08-30T12:07:09.354Z,98887.41
2022-08-30T12:10:51.013Z,98890.53
2022-08-30T12:13:42.784Z,98877.31
2022-08-30T12:17:44.345Z,98880.25
2022-08-30T12:21:28.177Z,98879.09
2022-08-30T12:24:34.800Z,98878.13
2022-08-30T12:28:18.370Z,98873.03
2022-08-30T12:30:46.737Z,98877.78
2022-08-30T12:34:34.335Z,98864.94
2022-08-30T12:38:18.392Z,98868.88
2022-08-30T12:40:58.454Z,98864.94
2022-08-30T12:44:41.129Z,98857.69
2022-08-30T12:48:24.005Z,98857.06
2022-08-30T12:50:59.213Z,98850.63
2022-08-30T12:53:42.161Z,98847.16
2022-08-30T12:56:30.458Z,98842.44
2022-08-30T12:59:05.006Z,98854.84
2022-08-30T13:01:36.569Z,98855.06
2022-08-30T13:04:27.702Z,98839.50
2022-08-30T13:06:59.518Z,98836.31
2022-08-30T13:09:43.939Z,98838.25
2022-08-30T13:12:27.358Z,98839.22
2022-08-30T13:15:21.272Z,98836.38
2022-08-30T13:17:49.446Z,98829.41
2022-08-30T13:20:16.738Z,98817.31
2022-08-30T13:23:59.234Z,98812.38
2022-08-30T13:27:44.377Z,98812.56
2022-08-30T13:31:27.465Z,98801.78
2022-08-30T13:35:10.163Z,98800.16
2022-08-30T13:38:52.769Z,98793.06
2022-08-30T13:42:35.251Z,98791.59
2022-08-30T13:46:18.502Z,98794.34
2022-08-30T13:48:46.686Z,98787.44
2022-08-30T13:51:14.126Z,98777.50
2022-08-30T13:54:56.664Z,98776.47
2022-08-30T13:58:39.712Z,98769.06
2022-08-30T14:02:24.206Z,98767.03
2022-08-30T14:04:51.504Z,98772.38
2022-08-30T14:07:20.223Z,98774.78
2022-08-30T14:11:03.105Z,98765.34
2022-08-30T14:13:31.201Z,98755.91
2022-08-30T14:17:14.064Z,98758.06
2022-08-30T14:19:41.279Z,98755.19
2022-08-30T14:22:08.581Z,98752.28
2022-08-30T14:24:36.068Z,98756.47
2022-08-30T14:27:03.514Z,98747.13
2022-08-30T14:29:31.602Z,98769.03
2022-08-30T14:32:00.324Z,98754.25
2022-08-30T14:34:27.931Z,98749.72
2022-08-30T14:36:56.315Z,98755.94
2022-08-30T14:39:24.187Z,98746.81
2022-08-30T14:41:55.571Z,98745.97
2022-08-30T14:44:25.442Z,98737.69
2022-08-30T14:46:54.230Z,98754.00
2022-08-30T14:49:22.931Z,98744.47
2022-08-30T14:51:51.709Z,98744.50
2022-08-30T14:54:26.086Z,98731.91
2022-08-30T14:56:54.856Z,98737.28
2022-08-30T14:59:24.065Z,98732.53
2022-08-30T15:01:52.107Z,98743.28
2022-08-30T15:04:21.536Z,98744.53
2022-08-30T15:06:50.515Z,98741.78
2022-08-30T15:09:23.779Z,98743.31
2022-08-30T15:11:59.624Z,98729.41
2022-08-30T15:14:29.214Z,98722.66
2022-08-30T15:17:02.601Z,98733.78
2022-08-30T15:19:32.341Z,98728.00
2022-08-30T15:22:06.026Z,98728.84
2022-08-30T15:24:33.798Z,98717.59
2022-08-30T15:27:02.224Z,98716.22
2022-08-30T15:29:31.795Z,98720.94
2022-08-30T15:32:02.109Z,98722.50
2022-08-30T15:34:32.078Z,98713.41
2022-08-30T15:37:00.210Z,98725.28
2022-08-30T15:39:27.940Z,98724.94
2022-08-30T15:42:00.756Z,98717.50
2022-08-30T15:44:31.372Z,98720.09
2022-08-30T15:46:59.481Z,98723.53
2022-08-30T15:49:26.715Z,98722.16
2022-08-30T15:51:54.653Z,98712.38
2022-08-30T15:54:24.087Z,98716.34
2022-08-30T15:56:59.000Z,98710.50
2022-08-30T15:59:29.921Z,98709.19
2022-08-30T16:01:57.671Z,98716.84
2022-08-30T16:04:25.645Z,98717.28
2022-08-30T16:06:53.783Z,98700.41
2022-08-30T16:09:22.249Z,98705.16
2022-08-30T16:11:49.760Z,98703.28
2022-08-30T16:14:17.677Z,98712.78
2022-08-30T16:16:46.471Z,98714.31
2022-08-30T16:19:14.391Z,98707.78
2022-08-30T16:21:44.067Z,98708.22
2022-08-30T16:24:13.861Z,98701.66
2022-08-30T16:26:43.337Z,98697.03
2022-08-30T16:29:13.342Z,98705.25
2022-08-30T16:31:45.628Z,98700.47
2022-08-30T16:34:20.111Z,98705.56
2022-08-30T16:36:47.787Z,98701.81
2022-08-30T16:39:16.586Z,98703.06
2022-08-30T16:41:45.542Z,98703.44
2022-08-30T16:44:15.958Z,98703.41
2022-08-30T16:46:53.750Z,98692.59
2022-08-30T16:49:25.440Z,98693.53
2022-08-30T16:51:54.671Z,98689.59
2022-08-30T16:54:22.853Z,98685.06
2022-08-30T16:56:51.013Z,98689.03
2022-08-30T16:59:18.931Z,98694.81
2022-08-30T17:01:46.512Z,98689.03
2022-08-30T17:04:18.501Z,98691.38
2022-08-30T17:06:49.887Z,98686.47
2022-08-30T17:09:19.222Z,98688.06
2022-08-30T17:11:47.548Z,98689.25
2022-08-30T17:14:16.343Z,98693.63
2022-08-30T17:16:50.463Z,98698.03
2022-08-30T17:19:18.559Z,98697.72
2022-08-30T17:21:54.545Z,98705.06
2022-08-30T17:24:21.792Z,98712.19
2022-08-30T17:26:49.255Z,98722.75
2022-08-30T17:29:17.603Z,98723.72
2022-08-30T17:31:51.168Z,98724.13
2022-08-30T17:34:24.175Z,98727.44
2022-08-30T17:36:55.492Z,98735.38
2022-08-30T17:39:24.838Z,98737.78
2022-08-30T17:41:52.901Z,98736.56
2022-08-30T17:44:26.881Z,98744.59
2022-08-30T17:46:56.417Z,98746.78
2022-08-30T17:49:24.994Z,98743.41
2022-08-30T17:51:56.718Z,98739.03
2022-08-30T17:54:28.219Z,98747.22
2022-08-30T17:56:57.650Z,98747.16
2022-08-30T17:59:27.260Z,98750.09
2022-08-30T18:01:59.172Z,98753.78
2022-08-30T18:04:26.641Z,98751.13
2022-08-30T18:06:55.447Z,98751.84
2022-08-30T18:09:24.039Z,98757.34
2022-08-30T18:11:52.178Z,98770.72
2022-08-30T18:14:24.534Z,98768.19
2022-08-30T18:16:54.469Z,98766.78
2022-08-30T18:19:27.921Z,98763.88
2022-08-30T18:21:56.565Z,98766.97
2022-08-30T18:24:25.044Z,98767.63
2022-08-30T18:26:54.782Z,98765.13
2022-08-30T18:29:29.157Z,98769.78
2022-08-30T18:32:02.508Z,98776.34
2022-08-30T18:34:30.705Z,98773.66
2022-08-30T18:36:57.987Z,98779.47
2022-08-30T18:39:26.176Z,98776.50
2022-08-30T18:41:54.462Z,98783.72
2022-08-30T18:44:43.867Z,98787.19
2022-08-30T18:47:11.858Z,98784.97
2022-08-30T18:49:39.197Z,98805.25
2022-08-30T18:52:10.364Z,98806.91
2022-08-30T18:54:51.787Z,98800.13
2022-08-30T18:57:22.006Z,98806.22
2022-08-30T18:59:50.351Z,98789.50
2022-08-30T19:02:17.796Z,98797.19
2022-08-30T19:04:45.811Z,98808.22
2022-08-30T19:07:16.607Z,98803.34
2022-08-30T19:09:47.745Z,98806.25
2022-08-30T19:12:15.289Z,98798.34
2022-08-30T19:14:46.450Z,98807.06
2022-08-30T19:17:14.350Z,98815.81
2022-08-30T19:19:48.772Z,98812.50
2022-08-30T19:22:26.624Z,98815.09
2022-08-30T19:24:54.680Z,98820.56
2022-08-30T19:27:37.639Z,98822.94
2022-08-30T19:30:20.567Z,98819.34
2022-08-30T19:32:51.549Z,98825.25
2022-08-30T19:35:21.250Z,98818.22
2022-08-30T19:37:48.516Z,98821.66
2022-08-30T19:40:19.182Z,98833.06
2022-08-30T19:42:47.723Z,98828.19
2022-08-30T19:45:18.546Z,98826.38
2022-08-30T19:51:00.314Z,98825.69
2022-08-30T19:53:27.911Z,98822.31
2022-08-30T19:55:55.095Z,98836.56
2022-08-30T19:58:22.282Z,98832.78
2022-08-30T20:00:53.022Z,98829.34
2022-08-30T20:03:28.681Z,98827.38
2022-08-30T20:05:57.087Z,98822.38
2022-08-30T20:08:24.254Z,98837.72
2022-08-30T20:10:52.324Z,98831.56
2022-08-30T20:13:23.586Z,98833.75
2022-08-30T20:15:59.065Z,98834.66
2022-08-30T20:18:26.985Z,98834.63
2022-08-30T20:20:55.286Z,98835.28
2022-08-30T20:23:26.325Z,98836.91
2022-08-30T20:25:55.458Z,98834.91
2022-08-30T20:28:25.713Z,98835.59
2022-08-30T20:30:55.874Z,98825.53
2022-08-30T20:33:25.028Z,98835.94
2022-08-30T20:35:52.567Z,98843.78
2022-08-30T20:38:21.711Z,98829.72
2022-08-30T20:41:01.015Z,98831.13
2022-08-30T20:43:31.451Z,98825.72
2022-08-30T20:45:58.774Z,98831.84
2022-08-30T20:48:28.636Z,98823.47
2022-08-30T20:51:04.689Z,98825.75
2022-08-30T20:53:32.168Z,98819.94
2022-08-30T20:55:59.429Z,98817.78
2022-08-30T20:58:26.848Z,98817.03
2022-08-30T21:00:55.576Z,98818.06
2022-08-30T21:03:26.439Z,98816.28
2022-08-30T21:05:57.693Z,98825.00
2022-08-30T21:08:26.253Z,98814.03
2022-08-30T21:10:54.536Z,98811.75
2022-08-30T21:13:22.395Z,98818.41
2022-08-30T21:16:00.363Z,98813.44
2022-08-30T21:18:33.117Z,98817.13
2022-08-30T21:21:09.375Z,98819.16
2022-08-30T21:23:37.137Z,98817.34
2022-08-30T21:26:10.305Z,98817.38
2022-08-30T21:28:38.709Z,98821.03
2022-08-30T21:31:19.169Z,98826.66
2022-08-30T21:33:50.050Z,98827.13
2022-08-30T21:36:37.054Z,98834.66
2022-08-30T21:39:06.823Z,98839.66
2022-08-30T21:41:37.388Z,98834.75
2022-08-30T21:44:18.807Z,98833.97
2022-08-30T21:46:48.381Z,98833.22
2022-08-30T21:49:21.448Z,98834.22
2022-08-30T21:51:52.383Z,98838.09
2022-08-30T21:54:21.581Z,98835.94
2022-08-30T21:56:52.600Z,98837.16
2022-08-30T21:59:21.644Z,98841.47
2022-08-30T22:01:49.978Z,98834.44
2022-08-30T22:04:17.854Z,98835.94
2022-08-30T22:06:50.202Z,98840.25
2022-08-30T22:09:25.412Z,98836.78
2022-08-30T22:11:54.797Z,98837.91
2022-08-30T22:14:23.138Z,98844.16
2022-08-30T22:16:51.640Z,98847.03
2022-08-30T22:19:25.013Z,98848.38
2022-08-30T22:21:53.899Z,98846.16
2022-08-30T22:24:32.276Z,98855.75
2022-08-30T22:27:05.104Z,98851.53
2022-08-30T22:29:33.467Z,98856.88
2022-08-30T22:32:01.509Z,98858.34
2022-08-30T22:34:29.391Z,98857.78
2022-08-30T22:36:56.615Z,98866.97
2022-08-30T22:39:25.437Z,98862.03
2022-08-30T22:41:52.745Z,98853.50
2022-08-30T22:44:19.971Z,98858.19
2022-08-30T22:46:47.400Z,98853.84
2022-08-30T22:49:14.750Z,98850.81
2022-08-30T22:51:42.709Z,98854.25
2022-08-30T22:54:11.784Z,98851.44
2022-08-30T22:56:40.288Z,98854.88
2022-08-30T22:59:07.882Z,98856.09
2022-08-30T23:01:40.645Z,98863.28
2022-08-30T23:04:09.448Z,98861.78
2022-08-30T23:06:37.135Z,98865.56
2022-08-30T23:09:06.347Z,98869.06
2022-08-30T23:11:34.897Z,98871.03
2022-08-30T23:14:04.695Z,98865.19
2022-08-30T23:16:33.752Z,98874.53
2022-08-30T23:19:01.247Z,98877.94
2022-08-30T23:21:31.218Z,98877.44
2022-08-30T23:24:18.218Z,98878.16
2022-08-30T23:27:06.181Z,98871.88
2022-08-30T23:29:53.856Z,98873.66
2022-08-30T23:32:40.750Z,98874.53
2022-08-30T23:35:32.049Z,98875.22
2022-08-30T23:38:23.810Z,98865.09
2022-08-30T23:41:10.769Z,98854.34
2022-08-30T23:43:57.090Z,98850.78
2022-08-30T23:46:43.033Z,98855.44
2022-08-30T23:49:29.135Z,98845.03
2022-08-30T23:52:15.035Z,98849.91
2022-08-30T23:55:01.637Z,98851.88
2022-08-30T23:57:47.634Z,98853.34
